Time;durP1;ratioP1;P1;durP2;ratioP2;P2;SDS_P1;SDS_P2;PMS_P1;PMS_P2;Temp;Humidity;BMP_temperature;BMP_pressure;BME280_temperature;BME280_humidity;BME280_pressure;Samples;Min_cycle;Max_cycle;Signal;HPM_P1;HPM_P2
2022/08/27 00:00:16;;;;;;;10.20;3.47;;;;;;;;;;5031856;28;20056;-74
2022/08/27 00:02:43;;;;;;;13.82;3.42;;;;;;;;;;5031793;28;20486;-74
2022/08/27 00:05:09;;;;;;;11.77;3.45;;;;;;;;;;5031558;28;20103;-75
2022/08/27 00:07:36;;;;;;;10.52;3.38;;;;;;;;;;5031887;28;20064;-74
2022/08/27 00:10:02;;;;;;;;;;;;;;;;;;5032512;28;20151;-74
2022/08/27 00:12:29;;;;;;;13.80;3.90;;;;;;;;;;5031251;28;19929;-74
2022/08/27 00:14:57;;;;;;;15.10;3.53;;;;;;;;;;5013017;28;20101;-74
2022/08/27 00:17:23;;;;;;;12.00;3.40;;;;;;;;;;5031032;28;20206;-74
2022/08/27 00:19:49;;;;;;;11.48;3.42;;;;;;;;;;5012868;28;20060;-74
2022/08/27 00:22:15;;;;;;;13.85;4.07;;;;;;;;;;5015577;28;20045;-79
2022/08/27 00:24:41;;;;;;;12.00;3.90;;;;;;;;;;5034978;28;20094;-79
2022/08/27 00:27:07;;;;;;;16.23;4.75;;;;;;;;;;5035301;28;20049;-78
2022/08/27 00:29:33;;;;;;;14.63;4.30;;;;;;;;;;5035308;28;20041;-79
2022/08/27 00:31:59;;;;;;;15.95;4.05;;;;;;;;;;5034660;28;20057;-79
2022/08/27 00:34:26;;;;;;;12.38;4.35;;;;;;;;;;5035025;28;20041;-80
2022/08/27 00:36:52;;;;;;;12.10;4.43;;;;;;;;;;5035124;28;20099;-79
2022/08/27 00:39:19;;;;;;;13.52;4.22;;;;;;;;;;5018291;28;20053;-79
2022/08/27 00:41:45;;;;;;;13.98;5.03;;;;;;;;;;5035249;28;20054;-78
2022/08/27 00:44:12;;;;;;;10.68;4.07;;;;;;;;;;5035747;28;20095;-78
2022/08/27 00:46:41;;;;;;;15.75;4.70;;;;;;;;;;5035221;28;20045;-78
2022/08/27 00:49:22;;;;;;;12.90;4.88;;;;;;;;;;5034953;28;20045;-80
2022/08/27 00:51:56;;;;;;;13.30;5.10;;;;;;;;;;5035137;28;20470;-79
2022/08/27 00:54:23;;;;;;;12.05;4.63;;;;;;;;;;5035074;28;20136;-80
2022/08/27 00:56:49;;;;;;;15.68;5.20;;;;;;;;;;5034776;28;20060;-77
2022/08/27 00:59:17;;;;;;;14.02;4.90;;;;;;;;;;5017953;28;20363;-74
2022/08/27 01:04:30;;;;;;;19.95;9.52;;;;;;;;;;5034860;28;20057;-79
2022/08/27 01:06:57;;;;;;;14.95;6.88;;;;;;;;;;5018023;28;20343;-80
2022/08/27 01:09:23;;;;;;;14.13;5.85;;;;;;;;;;5040270;28;20073;-79
2022/08/27 01:11:55;;;;;;;12.73;5.30;;;;;;;;;;5050208;28;20101;-79
2022/08/27 01:14:21;;;;;;;14.75;5.28;;;;;;;;;;5054201;28;20060;-79
2022/08/27 01:16:47;;;;;;;;;;;;;;;;;;5039374;28;20068;-79
2022/08/27 01:19:23;;;;;;;13.55;4.30;;;;;;;;;;5038835;28;20353;-79
2022/08/27 01:22:01;;;;;;;11.88;4.38;;;;;;;;;;5034804;28;20046;-79
2022/08/27 01:24:34;;;;;;;17.13;4.95;;;;;;;;;;5017038;28;20478;-75
2022/08/27 01:27:01;;;;;;;11.50;4.35;;;;;;;;;;5034467;28;20053;-80
2022/08/27 01:29:27;;;;;;;12.57;4.35;;;;;;;;;;5034256;28;20457;-77
2022/08/27 01:31:55;;;;;;;14.73;4.32;;;;;;;;;;5034529;28;20140;-78
2022/08/27 01:34:21;;;;;;;15.27;4.50;;;;;;;;;;5034371;28;20049;-78
2022/08/27 01:36:47;;;;;;;9.90;4.22;;;;;;;;;;5034301;28;20055;-76
2022/08/27 01:39:13;;;;;;;9.75;4.00;;;;;;;;;;5000114;28;20084;-79
2022/08/27 01:41:39;;;;;;;11.13;3.70;;;;;;;;;;5034467;28;20537;-80
2022/08/27 01:44:05;;;;;;;10.85;4.13;;;;;;;;;;5034733;28;20382;-80
2022/08/27 01:46:31;;;;;;;11.10;3.78;;;;;;;;;;5033429;28;20528;-77
2022/08/27 01:48:57;;;;;;;14.35;4.00;;;;;;;;;;5033961;28;20053;-81
2022/08/27 01:51:24;;;;;;;13.40;4.25;;;;;;;;;;5033505;28;20068;-79
2022/08/27 01:53:50;;;;;;;10.10;3.97;;;;;;;;;;5033383;28;20183;-79
2022/08/27 01:56:16;;;;;;;13.93;3.70;;;;;;;;;;5033788;28;20051;-79
2022/08/27 01:58:43;;;;;;;11.48;3.75;;;;;;;;;;5016956;28;20052;-79
2022/08/27 02:01:11;;;;;;;13.77;3.60;;;;;;;;;;5016422;28;20045;-80
2022/08/27 02:03:38;;;;;;;11.95;4.10;;;;;;;;;;5034385;28;20045;-79
2022/08/27 02:06:06;;;;;;;12.63;4.03;;;;;;;;;;5033411;28;20323;-79
2022/08/27 02:08:32;;;;;;;14.15;4.82;;;;;;;;;;5016072;28;20436;-79
2022/08/27 02:10:59;;;;;;;13.70;4.30;;;;;;;;;;5033538;28;20046;-79
2022/08/27 02:13:25;;;;;;;12.27;4.43;;;;;;;;;;5015736;28;20049;-79
2022/08/27 02:15:52;;;;;;;11.02;3.90;;;;;;;;;;5033325;28;20052;-79
2022/08/27 02:18:17;;;;;;;;;;;;;;;;;;5016839;28;20049;-79
2022/08/27 02:20:44;;;;;;;10.25;3.88;;;;;;;;;;5032340;28;19983;-79
2022/08/27 02:23:11;;;;;;;11.43;3.80;;;;;;;;;;5016113;28;20045;-80
2022/08/27 02:25:37;;;;;;;11.35;3.70;;;;;;;;;;5033163;28;20041;-79
2022/08/27 02:28:03;;;;;;;;;;;;;;;;;;5033284;28;20462;-79
2022/08/27 02:30:33;;;;;;;12.00;3.50;;;;;;;;;;5033187;28;19921;-79
2022/08/27 02:33:03;;;;;;;14.75;3.88;;;;;;;;;;5015977;28;20064;-79
2022/08/27 02:35:30;;;;;;;9.05;3.63;;;;;;;;;;5033586;28;20046;-78
2022/08/27 02:37:57;;;;;;;11.55;4.03;;;;;;;;;;5033948;28;20045;-79
2022/08/27 02:40:23;;;;;;;12.10;3.75;;;;;;;;;;5033859;28;20049;-79
2022/08/27 02:42:50;;;;;;;11.00;3.70;;;;;;;;;;5035806;28;20053;-79
2022/08/27 02:45:17;;;;;;;11.90;3.80;;;;;;;;;;5037907;28;20497;-80
2022/08/27 02:47:52;;;;;;;9.23;3.60;;;;;;;;;;5036623;28;20075;-79
2022/08/27 02:50:19;;;;;;;11.20;4.05;;;;;;;;;;5047396;28;20497;-79
2022/08/27 02:52:45;;;;;;;;;;;;;;;;;;5053737;28;20045;-79
2022/08/27 02:55:11;;;;;;;12.27;3.55;;;;;;;;;;5053699;28;19921;-78
2022/08/27 02:57:39;;;;;;;13.20;3.47;;;;;;;;;;5034990;28;20050;-78
2022/08/27 03:00:08;;;;;;;13.07;3.55;;;;;;;;;;5015982;28;20046;-79
2022/08/27 03:02:35;;;;;;;12.23;3.55;;;;;;;;;;5032972;28;20046;-78
2022/08/27 03:05:02;;;;;;;9.07;3.45;;;;;;;;;;5033370;28;20050;-79
2022/08/27 03:07:28;;;;;;;11.85;3.80;;;;;;;;;;5015595;28;20072;-79
2022/08/27 03:09:54;;;;;;;11.05;4.00;;;;;;;;;;5015381;28;20088;-78
2022/08/27 03:12:20;;;;;;;12.18;3.95;;;;;;;;;;5032451;28;20472;-78
2022/08/27 03:14:48;;;;;;;11.82;3.50;;;;;;;;;;5032639;28;20409;-79
2022/08/27 03:20:00;;;;;;;9.07;3.15;;;;;;;;;;5032706;28;20049;-78
2022/08/27 03:22:26;;;;;;;12.18;3.33;;;;;;;;;;5032691;28;20053;-78
2022/08/27 03:24:55;;;;;;;11.43;3.90;;;;;;;;;;5032430;28;20540;-77
2022/08/27 03:27:21;;;;;;;12.63;3.20;;;;;;;;;;5015042;28;20048;-78
2022/08/27 03:29:47;;;;;;;13.88;3.83;;;;;;;;;;4998938;28;20049;-78
2022/08/27 03:32:13;;;;;;;12.23;3.40;;;;;;;;;;5033180;28;20061;-78
2022/08/27 03:34:39;;;;;;;11.20;3.50;;;;;;;;;;5014920;28;20085;-78
2022/08/27 03:37:05;;;;;;;10.50;3.60;;;;;;;;;;5032728;28;20119;-78
2022/08/27 03:39:32;;;;;;;11.43;3.33;;;;;;;;;;5032495;28;20115;-78
2022/08/27 03:41:58;;;;;;;12.57;3.30;;;;;;;;;;5033020;28;20057;-78
2022/08/27 03:44:24;;;;;;;11.65;3.55;;;;;;;;;;5032449;28;20042;-79
2022/08/27 03:46:53;;;;;;;12.02;3.33;;;;;;;;;;5033137;28;20142;-78
2022/08/27 03:49:20;;;;;;;13.30;3.80;;;;;;;;;;5014768;28;20045;-78
2022/08/27 03:51:46;;;;;;;10.88;3.33;;;;;;;;;;5032320;28;20061;-78
2022/08/27 03:54:12;;;;;;;15.00;3.58;;;;;;;;;;5032338;28;20052;-78
2022/08/27 03:56:39;;;;;;;10.38;3.35;;;;;;;;;;4998446;28;20049;-79
2022/08/27 03:59:06;;;;;;;13.13;3.35;;;;;;;;;;5015088;28;20485;-79
2022/08/27 04:01:32;;;;;;;11.30;3.42;;;;;;;;;;5002277;28;20453;-78
2022/08/27 04:03:58;;;;;;;11.27;3.10;;;;;;;;;;5035382;28;20555;-79
2022/08/27 04:06:24;;;;;;;10.73;3.38;;;;;;;;;;5035660;28;20540;-79
2022/08/27 04:08:53;;;;;;;8.25;2.90;;;;;;;;;;5035834;28;20052;-80
2022/08/27 04:11:20;;;;;;;11.75;3.22;;;;;;;;;;5035733;28;20041;-79
2022/08/27 04:13:47;;;;;;;11.00;3.05;;;;;;;;;;5018015;28;20497;-79
2022/08/27 04:16:13;;;;;;;8.65;3.20;;;;;;;;;;5001745;28;20096;-79
2022/08/27 04:18:39;;;;;;;11.75;3.58;;;;;;;;;;5036033;28;20152;-75
2022/08/27 04:21:10;;;;;;;12.60;3.33;;;;;;;;;;5035507;28;20045;-78
2022/08/27 04:23:37;;;;;;;13.80;4.30;;;;;;;;;;5018614;28;20465;-78
2022/08/27 04:26:04;;;;;;;12.52;3.10;;;;;;;;;;5035190;28;20049;-79
2022/08/27 04:28:31;;;;;;;12.48;3.72;;;;;;;;;;5034818;28;20083;-79
2022/08/27 04:30:57;;;;;;;10.93;3.50;;;;;;;;;;5034719;28;20061;-78
2022/08/27 04:33:23;;;;;;;11.98;3.40;;;;;;;;;;5034519;28;20089;-79
2022/08/27 04:35:57;;;;;;;13.00;3.20;;;;;;;;;;5034302;28;20052;-79
2022/08/27 04:38:23;;;;;;;9.75;3.03;;;;;;;;;;5034094;28;20046;-79
2022/08/27 04:43:34;;;;;;;11.52;3.88;;;;;;;;;;5034356;28;20123;-79
2022/08/27 04:46:00;;;;;;;11.35;3.10;;;;;;;;;;5034257;28;20449;-78
2022/08/27 04:48:26;;;;;;;13.52;3.38;;;;;;;;;;5033749;28;20042;-78
2022/08/27 04:50:52;;;;;;;10.23;3.45;;;;;;;;;;5033427;28;20068;-78
2022/08/27 04:53:19;;;;;;;12.13;3.80;;;;;;;;;;5033318;28;20554;-79
2022/08/27 04:55:48;;;;;;;10.82;3.30;;;;;;;;;;5033445;28;20046;-78
2022/08/27 04:58:14;;;;;;;9.85;3.13;;;;;;;;;;5033152;28;20240;-79
2022/08/27 05:00:43;;;;;;;15.23;3.45;;;;;;;;;;5033899;28;20456;-79
2022/08/27 05:03:09;;;;;;;12.40;3.13;;;;;;;;;;5033653;28;20049;-79
2022/08/27 05:05:36;;;;;;;11.23;3.58;;;;;;;;;;5033578;28;20045;-79
2022/08/27 05:08:02;;;;;;;10.02;3.00;;;;;;;;;;5015669;28;20056;-79
2022/08/27 05:10:28;;;;;;;11.65;3.00;;;;;;;;;;5032510;28;20046;-79
2022/08/27 05:12:54;;;;;;;12.88;3.50;;;;;;;;;;5033406;28;20046;-79
2022/08/27 05:15:21;;;;;;;16.85;3.63;;;;;;;;;;5032887;28;20049;-79
2022/08/27 05:17:47;;;;;;;10.65;3.38;;;;;;;;;;5033228;28;20071;-78
2022/08/27 05:20:13;;;;;;;13.38;3.63;;;;;;;;;;5015285;28;20504;-79
2022/08/27 05:22:39;;;;;;;12.68;3.55;;;;;;;;;;5032796;28;20402;-79
2022/08/27 05:25:06;;;;;;;12.25;3.20;;;;;;;;;;5032498;28;20450;-79
2022/08/27 05:27:32;;;;;;;;;;;;;;;;;;5033187;28;20525;-79
2022/08/27 05:29:58;;;;;;;13.05;3.28;;;;;;;;;;5032647;28;19925;-79
2022/08/27 05:32:24;;;;;;;12.27;3.55;;;;;;;;;;5032713;28;20125;-79
2022/08/27 05:34:50;;;;;;;12.57;3.30;;;;;;;;;;5032912;28;20049;-78
2022/08/27 05:37:16;;;;;;;11.15;3.22;;;;;;;;;;5014920;28;20056;-80
2022/08/27 05:39:42;;;;;;;12.02;3.50;;;;;;;;;;5015941;28;20126;-79
2022/08/27 05:42:08;;;;;;;12.18;3.20;;;;;;;;;;5014989;28;20056;-79
2022/08/27 05:44:34;;;;;;;10.40;3.63;;;;;;;;;;5014978;28;20045;-78
2022/08/27 05:47:01;;;;;;;11.80;3.47;;;;;;;;;;5014948;28;20107;-79
2022/08/27 05:49:27;;;;;;;11.05;3.67;;;;;;;;;;5014856;28;20045;-80
2022/08/27 05:51:54;;;;;;;13.48;3.60;;;;;;;;;;5032641;28;20049;-79
2022/08/27 05:54:20;;;;;;;11.98;3.70;;;;;;;;;;5032749;28;20045;-80
2022/08/27 05:56:49;;;;;;;11.75;3.67;;;;;;;;;;5033372;28;20049;-78
2022/08/27 06:01:59;;;;;;;14.18;3.80;;;;;;;;;;5032401;28;20041;-79
2022/08/27 06:04:25;;;;;;;13.05;3.80;;;;;;;;;;5032913;28;20176;-78
2022/08/27 06:06:51;;;;;;;14.95;4.05;;;;;;;;;;5031918;28;20081;-77
2022/08/27 06:09:19;;;;;;;14.13;4.07;;;;;;;;;;5031728;28;20122;-77
2022/08/27 06:11:45;;;;;;;14.68;4.05;;;;;;;;;;5015066;28;20045;-79
2022/08/27 06:14:11;;;;;;;10.65;3.83;;;;;;;;;;5031807;28;20037;-81
2022/08/27 06:16:38;;;;;;;11.82;3.60;;;;;;;;;;5031870;28;20508;-81
2022/08/27 06:19:05;;;;;;;10.65;3.50;;;;;;;;;;5031711;28;20081;-78
2022/08/27 06:21:31;;;;;;;10.30;3.78;;;;;;;;;;5031472;28;20107;-79
2022/08/27 06:23:57;;;;;;;14.40;3.70;;;;;;;;;;5031617;28;20375;-79
2022/08/27 06:26:24;;;;;;;13.35;3.78;;;;;;;;;;5014953;28;20099;-80
2022/08/27 06:28:50;;;;;;;14.65;4.00;;;;;;;;;;5034027;28;20053;-79
2022/08/27 06:31:16;;;;;;;;;;;;;;;;;;5037113;28;20059;-80
2022/08/27 06:33:43;;;;;;;12.45;3.92;;;;;;;;;;5034610;28;19925;-81
2022/08/27 06:36:10;;;;;;;13.50;3.60;;;;;;;;;;5032187;28;20084;-81
2022/08/27 06:38:37;;;;;;;12.50;3.78;;;;;;;;;;5032068;28;20095;-80
2022/08/27 06:41:04;;;;;;;16.55;4.20;;;;;;;;;;5031841;28;20080;-81
2022/08/27 06:43:30;;;;;;;12.88;4.00;;;;;;;;;;5031701;28;20060;-80
2022/08/27 06:46:01;;;;;;;13.90;3.55;;;;;;;;;;5031781;28;20060;-76
2022/08/27 06:48:27;;;;;;;13.35;3.35;;;;;;;;;;5032309;28;20103;-80
2022/08/27 06:50:54;;;;;;;12.23;3.53;;;;;;;;;;4998185;28;20053;-80
2022/08/27 06:53:21;;;;;;;12.95;3.20;;;;;;;;;;5031835;28;20046;-80
2022/08/27 06:55:47;;;;;;;12.88;3.33;;;;;;;;;;5014079;28;20470;-80
2022/08/27 06:58:14;;;;;;;14.73;3.50;;;;;;;;;;5032219;28;20045;-79
2022/08/27 07:00:41;;;;;;;14.52;3.22;;;;;;;;;;5014784;28;20042;-80
2022/08/27 07:03:07;;;;;;;12.13;3.55;;;;;;;;;;5014178;28;20057;-79
2022/08/27 07:05:34;;;;;;;18.63;3.30;;;;;;;;;;5031909;28;20116;-81
2022/08/27 07:08:01;;;;;;;13.02;3.17;;;;;;;;;;5014496;28;20385;-75
2022/08/27 07:10:27;;;;;;;12.50;3.17;;;;;;;;;;5031997;28;20061;-81
2022/08/27 07:12:54;;;;;;;13.30;3.10;;;;;;;;;;5031150;28;20103;-85
2022/08/27 07:15:21;;;;;;;11.27;2.80;;;;;;;;;;5030987;28;20499;-80
2022/08/27 07:17:47;;;;;;;16.65;2.92;;;;;;;;;;5031510;28;20049;-78
2022/08/27 07:20:14;;;;;;;13.95;3.00;;;;;;;;;;5012975;28;20073;-74
2022/08/27 07:22:41;;;;;;;12.45;3.40;;;;;;;;;;5032212;28;20049;-76
2022/08/27 07:25:09;;;;;;;15.95;2.70;;;;;;;;;;5031263;28;20156;-78
2022/08/27 07:27:35;;;;;;;13.13;3.40;;;;;;;;;;5031513;28;20052;-80
2022/08/27 07:30:01;;;;;;;;;;;;;;;;;;5013609;28;20049;-78
2022/08/27 07:32:27;;;;;;;13.95;3.13;;;;;;;;;;5030730;28;19967;-73
2022/08/27 07:34:53;;;;;;;11.98;2.83;;;;;;;;;;5016304;28;20046;-76
2022/08/27 07:37:21;;;;;;;12.70;2.65;;;;;;;;;;5034682;28;20045;-78
2022/08/27 07:39:47;;;;;;;13.25;2.75;;;;;;;;;;5034623;28;20057;-75
2022/08/27 07:44:57;;;;;;;14.38;2.83;;;;;;;;;;5035173;28;19983;-80
2022/08/27 07:47:24;;;;;;;13.57;3.83;;;;;;;;;;5035445;28;20056;-81
2022/08/27 07:49:49;;;;;;;;;;;;;;;;;;5036442;28;20103;-81
2022/08/27 07:52:16;;;;;;;14.05;2.80;;;;;;;;;;5035190;28;20361;-79
2022/08/27 07:54:42;;;;;;;;;;;;;;;;;;5035977;28;20136;-90
2022/08/27 07:57:09;;;;;;;11.63;2.70;;;;;;;;;;5036023;28;20249;-85
2022/08/27 07:59:35;;;;;;;14.77;2.63;;;;;;;;;;5018354;28;20151;-73
2022/08/27 08:02:01;;;;;;;12.65;2.50;;;;;;;;;;5036039;28;20045;-72
2022/08/27 08:04:27;;;;;;;18.00;2.97;;;;;;;;;;5035869;28;20046;-73
2022/08/27 08:06:54;;;;;;;16.08;3.30;;;;;;;;;;5018059;28;20048;-74
2022/08/27 08:09:22;;;;;;;15.48;2.65;;;;;;;;;;5034922;28;20071;-69
2022/08/27 08:11:49;;;;;;;13.77;2.90;;;;;;;;;;5034557;28;20092;-74
2022/08/27 08:14:15;;;;;;;16.13;3.25;;;;;;;;;;5033601;28;20049;-74
2022/08/27 08:16:41;;;;;;;13.57;2.83;;;;;;;;;;5016473;28;20507;-72
2022/08/27 08:19:08;;;;;;;12.90;2.70;;;;;;;;;;5035218;28;20119;-83
2022/08/27 08:21:37;;;;;;;13.65;3.00;;;;;;;;;;5034623;28;20060;-78
2022/08/27 08:24:04;;;;;;;10.68;2.53;;;;;;;;;;5034684;28;20049;-75
2022/08/27 08:26:30;;;;;;;14.02;2.40;;;;;;;;;;5034565;28;20506;-76
2022/08/27 08:28:56;;;;;;;11.82;2.53;;;;;;;;;;5034707;28;20512;-87
2022/08/27 08:31:26;;;;;;;;;;;;;;;;;;5017509;28;20076;-79
2022/08/27 08:33:53;;;;;;;14.23;3.03;;;;;;;;;;5035363;28;19921;-70
2022/08/27 08:36:19;;;;;;;10.27;2.20;;;;;;;;;;5017709;28;20049;-69
2022/08/27 08:38:47;;;;;;;13.15;2.95;;;;;;;;;;5035630;28;20142;-72
2022/08/27 08:41:22;;;;;;;10.82;2.58;;;;;;;;;;5034502;28;20052;-77
2022/08/27 08:43:50;;;;;;;14.18;2.95;;;;;;;;;;5034812;28;20463;-70
2022/08/27 08:46:36;;;;;;;16.35;2.70;;;;;;;;;;5034250;28;20049;-79
2022/08/27 08:49:07;;;;;;;13.35;3.05;;;;;;;;;;5035022;28;20099;-73
2022/08/27 08:51:35;;;;;;;12.27;2.55;;;;;;;;;;5017244;28;20463;-72
2022/08/27 08:54:04;;;;;;;76.43;7.93;;;;;;;;;;5034386;28;20048;-69
2022/08/27 08:56:31;;;;;;;24.20;2.92;;;;;;;;;;5034493;28;20482;-70
2022/08/27 08:59:10;;;;;;;14.48;2.70;;;;;;;;;;5034039;28;20048;-75
2022/08/27 09:01:37;;;;;;;15.27;2.70;;;;;;;;;;5034664;28;20047;-71
2022/08/27 09:04:04;;;;;;;;;;;;;;;;;;5018199;28;20049;-72
2022/08/27 09:06:38;;;;;;;14.75;2.92;;;;;;;;;;5035117;28;19974;-91
2022/08/27 09:09:13;;;;;;;23.77;2.55;;;;;;;;;;5034383;28;20076;-84
2022/08/27 09:11:42;;;;;;;14.35;2.60;;;;;;;;;;5035071;28;20103;-89
2022/08/27 09:14:19;;;;;;;13.10;2.70;;;;;;;;;;5001781;28;20056;-82
2022/08/27 09:16:45;;;;;;;13.30;2.97;;;;;;;;;;5035752;28;20080;-81
2022/08/27 09:19:11;;;;;;;13.10;2.60;;;;;;;;;;5034903;28;20096;-86
2022/08/27 09:21:37;;;;;;;8.75;2.20;;;;;;;;;;5034810;28;20128;-88
2022/08/27 09:24:22;;;;;;;9.65;2.60;;;;;;;;;;5017302;28;20054;-80
2022/08/27 09:26:48;;;;;;;10.95;2.58;;;;;;;;;;5034766;28;20063;-75
2022/08/27 09:29:20;;;;;;;;;;;;;;;;;;5035200;28;20393;-83
2022/08/27 09:31:59;;;;;;;14.68;2.50;;;;;;;;;;5034378;28;20435;-70
2022/08/27 09:34:27;;;;;;;12.13;2.70;;;;;;;;;;5031239;28;20132;-67
2022/08/27 09:37:02;;;;;;;12.40;2.58;;;;;;;;;;5033766;28;20085;-66
2022/08/27 09:39:32;;;;;;;11.10;2.40;;;;;;;;;;5033895;28;20052;-67
2022/08/27 09:41:59;;;;;;;13.75;2.45;;;;;;;;;;5033668;28;20045;-69
2022/08/27 09:44:25;;;;;;;11.45;2.40;;;;;;;;;;5032776;28;20054;-69
2022/08/27 09:46:53;;;;;;;12.88;2.75;;;;;;;;;;5033169;28;20049;-69
2022/08/27 09:49:19;;;;;;;13.77;2.60;;;;;;;;;;5015601;28;20401;-68
2022/08/27 09:51:48;;;;;;;13.23;2.70;;;;;;;;;;5033792;28;20049;-67
2022/08/27 09:54:14;;;;;;;;;;;;;;;;;;5034266;28;20045;-69
2022/08/27 09:56:47;;;;;;;16.48;2.40;;;;;;;;;;5033051;28;19972;-68
2022/08/27 09:59:21;;;;;;;12.95;3.13;;;;;;;;;;5035108;28;20151;-79
2022/08/27 10:01:53;;;;;;;10.98;2.30;;;;;;;;;;5038081;28;20049;-83
2022/08/27 10:04:36;;;;;;;10.55;2.40;;;;;;;;;;5038196;28;20061;-89
2022/08/27 10:07:14;;;;;;;15.00;2.80;;;;;;;;;;5036138;28;20168;-89
2022/08/27 10:09:44;;;;;;;14.73;2.72;;;;;;;;;;5020104;28;20100;-90
2022/08/27 10:12:23;;;;;;;11.43;2.40;;;;;;;;;;5039224;28;20097;-90
2022/08/27 10:14:52;;;;;;;9.13;2.22;;;;;;;;;;5038975;28;20039;-76
2022/08/27 10:17:24;;;;;;;12.60;2.25;;;;;;;;;;5004167;28;20045;-92
2022/08/27 10:20:02;;;;;;;11.65;2.20;;;;;;;;;;5025145;28;20041;-77
2022/08/27 10:22:47;;;;;;;14.00;2.53;;;;;;;;;;5035604;28;20068;-93
2022/08/27 10:25:13;;;;;;;8.80;2.28;;;;;;;;;;5040151;28;20076;-78
2022/08/27 10:28:05;;;;;;;11.68;2.45;;;;;;;;;;5015994;28;20042;-74
2022/08/27 10:30:40;;;;;;;13.20;2.40;;;;;;;;;;5027770;28;20049;-76
2022/08/27 10:33:06;;;;;;;11.07;2.30;;;;;;;;;;5034342;28;20368;-77
2022/08/27 10:35:40;;;;;;;10.57;2.20;;;;;;;;;;5033489;28;20045;-76
2022/08/27 10:38:12;;;;;;;10.80;2.30;;;;;;;;;;5033980;28;20041;-74
2022/08/27 10:40:42;;;;;;;10.20;2.17;;;;;;;;;;5033003;28;20045;-78
2022/08/27 10:43:08;;;;;;;13.18;2.20;;;;;;;;;;5033513;28;20052;-74
2022/08/27 10:45:56;;;;;;;11.30;2.10;;;;;;;;;;5032994;28;20091;-78
2022/08/27 10:48:27;;;;;;;8.95;2.00;;;;;;;;;;5033112;28;20046;-75
2022/08/27 10:51:01;;;;;;;13.55;2.60;;;;;;;;;;5033735;28;20369;-66
2022/08/27 10:53:47;;;;;;;10.13;2.08;;;;;;;;;;5032389;28;20374;-69
2022/08/27 10:56:19;;;;;;;9.52;1.80;;;;;;;;;;5033691;28;20454;-78
2022/08/27 10:58:59;;;;;;;11.40;2.30;;;;;;;;;;5015864;28;20124;-84
2022/08/27 11:01:25;;;;;;;11.73;2.60;;;;;;;;;;5032692;28;20042;-78
2022/08/27 11:03:51;;;;;;;;;;;;;;;;;;5032762;28;20049;-75
2022/08/27 11:06:36;;;;;;;10.40;2.60;;;;;;;;;;5032585;28;19940;-76
2022/08/27 11:09:06;;;;;;;11.30;2.10;;;;;;;;;;5034134;28;20067;-83
2022/08/27 11:11:41;;;;;;;13.80;2.60;;;;;;;;;;5036579;28;20110;-71
2022/08/27 11:14:08;;;;;;;13.52;2.30;;;;;;;;;;5036705;28;20041;-74
2022/08/27 11:16:38;;;;;;;12.55;2.33;;;;;;;;;;5037025;28;20048;-79
2022/08/27 11:19:17;;;;;;;14.52;2.63;;;;;;;;;;5002952;28;20052;-75
2022/08/27 11:21:46;;;;;;;12.73;2.08;;;;;;;;;;5033578;28;20128;-74
2022/08/27 11:24:12;;;;;;;11.68;2.13;;;;;;;;;;5036472;28;20412;-80
2022/08/27 11:26:38;;;;;;;;;;;;;;;;;;5020640;28;20081;-73
2022/08/27 11:29:18;;;;;;;10.77;2.22;;;;;;;;;;5037099;28;20264;-76
2022/08/27 11:31:48;;;;;;;10.27;2.20;;;;;;;;;;5037168;28;20140;-74
2022/08/27 11:34:22;;;;;;;10.57;2.33;;;;;;;;;;5037009;28;20081;-76
2022/08/27 11:36:55;;;;;;;12.63;2.22;;;;;;;;;;5037349;28;20056;-82
2022/08/27 11:39:21;;;;;;;12.60;2.20;;;;;;;;;;5035885;28;20128;-73
2022/08/27 11:41:47;;;;;;;;;;;;;;;;;;5036412;28;20076;-71
2022/08/27 11:44:18;;;;;;;13.88;2.42;;;;;;;;;;5018922;28;20375;-73
2022/08/27 11:46:49;;;;;;;12.80;2.40;;;;;;;;;;5034836;28;20478;-82
2022/08/27 11:49:42;;;;;;;13.25;2.28;;;;;;;;;;5035777;28;20045;-83
2022/08/27 11:52:08;;;;;;;10.85;2.40;;;;;;;;;;5031652;28;20049;-70
2022/08/27 11:54:49;;;;;;;9.20;2.03;;;;;;;;;;5035256;28;20041;-65
2022/08/27 11:57:32;;;;;;;10.07;1.90;;;;;;;;;;5035953;28;20049;-65
2022/08/27 11:59:59;;;;;;;9.18;2.20;;;;;;;;;;5035635;28;20091;-69
2022/08/27 12:02:27;;;;;;;12.00;1.83;;;;;;;;;;5035596;28;20049;-66
2022/08/27 12:05:05;;;;;;;12.93;2.38;;;;;;;;;;5035145;28;20041;-64
2022/08/27 12:07:36;;;;;;;12.90;2.10;;;;;;;;;;5018306;28;20053;-64
2022/08/27 12:10:02;;;;;;;9.73;2.00;;;;;;;;;;5035951;28;20057;-64
2022/08/27 12:12:28;;;;;;;;;;;;;;;;;;5035718;28;20103;-71
2022/08/27 12:15:21;;;;;;;7.95;1.80;;;;;;;;;;5035929;28;20376;-66
2022/08/27 12:18:10;;;;;;;15.10;2.50;;;;;;;;;;5032177;28;20084;-86
2022/08/27 12:20:48;;;;;;;12.05;1.90;;;;;;;;;;5034336;28;20092;-70
2022/08/27 12:26:21;;;;;;;10.45;2.03;;;;;;;;;;5035132;28;20107;-75
2022/08/27 12:28:47;;;;;;;13.73;2.00;;;;;;;;;;5017470;28;20092;-82
2022/08/27 12:31:14;;;;;;;;;;;;;;;;;;5034933;28;20067;-71
2022/08/27 12:34:00;;;;;;;12.95;2.45;;;;;;;;;;5017445;28;19921;-71
2022/08/27 12:36:27;;;;;;;11.38;2.03;;;;;;;;;;5034699;28;20068;-66
2022/08/27 12:38:55;;;;;;;11.18;2.15;;;;;;;;;;5034453;28;20061;-66
2022/08/27 12:41:24;;;;;;;12.52;2.17;;;;;;;;;;5034157;28;20477;-71
2022/08/27 12:44:01;;;;;;;11.32;2.13;;;;;;;;;;5034039;28;20153;-67
2022/08/27 12:46:27;;;;;;;;;;;;;;;;;;5001938;28;20128;-67
2022/08/27 12:49:03;;;;;;;9.95;2.25;;;;;;;;;;5035739;28;20012;-67
2022/08/27 12:51:30;;;;;;;11.90;2.25;;;;;;;;;;5035297;28;20084;-67
2022/08/27 12:54:15;;;;;;;12.27;2.10;;;;;;;;;;5035091;28;20132;-67
2022/08/27 12:56:59;;;;;;;13.25;2.53;;;;;;;;;;5017413;28;20433;-66
2022/08/27 12:59:34;;;;;;;14.35;2.75;;;;;;;;;;5034769;28;20402;-80
2022/08/27 13:02:19;;;;;;;15.38;2.22;;;;;;;;;;5016320;28;20052;-80
2022/08/27 13:04:46;;;;;;;11.40;1.95;;;;;;;;;;5034849;28;20041;-81
2022/08/27 13:07:13;;;;;;;14.88;2.92;;;;;;;;;;5035254;28;20053;-89
2022/08/27 13:09:40;;;;;;;11.73;2.13;;;;;;;;;;5016323;28;20045;-91
2022/08/27 13:12:16;;;;;;;9.00;1.98;;;;;;;;;;5034604;28;20148;-78
2022/08/27 13:14:42;;;;;;;14.77;2.33;;;;;;;;;;5034485;28;20234;-88
2022/08/27 13:17:10;;;;;;;14.55;2.53;;;;;;;;;;5035474;28;20045;-73
2022/08/27 13:19:42;;;;;;;11.85;2.38;;;;;;;;;;5034742;28;20053;-80
2022/08/27 13:22:08;;;;;;;12.27;2.17;;;;;;;;;;5035303;28;20046;-88
2022/08/27 13:24:37;;;;;;;;;;;;;;;;;;5038096;28;20179;-85
2022/08/27 13:27:05;;;;;;;10.73;2.53;;;;;;;;;;5038945;28;19921;-86
2022/08/27 13:29:43;;;;;;;9.90;2.22;;;;;;;;;;5040931;28;20151;-81
2022/08/27 13:32:11;;;;;;;9.45;2.28;;;;;;;;;;5035447;28;20057;-69
2022/08/27 13:34:39;;;;;;;12.80;2.58;;;;;;;;;;5034017;28;20136;-75
2022/08/27 13:37:25;;;;;;;15.55;2.28;;;;;;;;;;5016852;28;20053;-78
2022/08/27 13:39:54;;;;;;;10.95;2.13;;;;;;;;;;5032612;28;20151;-75
2022/08/27 13:42:20;;;;;;;10.68;1.95;;;;;;;;;;5017230;28;20385;-76
2022/08/27 13:44:47;;;;;;;14.43;2.47;;;;;;;;;;5034073;28;20053;-77
2022/08/27 13:47:21;;;;;;;11.15;2.38;;;;;;;;;;5034149;28;20088;-77
2022/08/27 13:49:47;;;;;;;11.55;2.15;;;;;;;;;;5015697;28;20130;-71
2022/08/27 13:52:13;;;;;;;;;;;;;;;;;;5033752;28;20140;-85
2022/08/27 13:54:43;;;;;;;10.60;2.22;;;;;;;;;;5034044;28;20007;-84
2022/08/27 13:57:10;;;;;;;8.63;2.35;;;;;;;;;;5016494;28;20045;-74
2022/08/27 13:59:38;;;;;;;12.25;2.38;;;;;;;;;;5033285;28;20041;-81
2022/08/27 14:02:10;;;;;;;11.27;2.65;;;;;;;;;;5033395;28;20072;-72
2022/08/27 14:04:42;;;;;;;14.15;2.97;;;;;;;;;;5033872;28;20120;-74
2022/08/27 14:07:16;;;;;;;13.55;2.53;;;;;;;;;;5032349;28;20436;-74
2022/08/27 14:09:51;;;;;;;12.38;2.30;;;;;;;;;;5016041;28;20054;-77
2022/08/27 14:12:30;;;;;;;11.90;2.65;;;;;;;;;;5033519;28;20049;-75
2022/08/27 14:14:57;;;;;;;11.35;2.50;;;;;;;;;;5033370;28;20038;-77
2022/08/27 14:17:28;;;;;;;10.27;2.38;;;;;;;;;;5033295;28;20072;-71
2022/08/27 14:19:59;;;;;;;12.40;2.45;;;;;;;;;;5033154;28;20492;-71
2022/08/27 14:22:25;;;;;;;12.68;3.38;;;;;;;;;;5015315;28;20510;-82
2022/08/27 14:24:51;;;;;;;;;;;;;;;;;;5033818;28;20128;-82
2022/08/27 14:27:18;;;;;;;8.15;2.33;;;;;;;;;;5015225;28;20373;-73
2022/08/27 14:29:45;;;;;;;12.32;2.85;;;;;;;;;;5032951;28;20056;-75
2022/08/27 14:32:11;;;;;;;11.52;2.30;;;;;;;;;;5032547;28;20117;-74
2022/08/27 14:34:37;;;;;;;;;;;;;;;;;;5015642;28;20486;-72
2022/08/27 14:37:03;;;;;;;12.02;2.75;;;;;;;;;;5032935;28;19943;-76
2022/08/27 14:39:30;;;;;;;10.52;2.50;;;;;;;;;;5014555;28;20045;-71
2022/08/27 14:41:56;;;;;;;;;;;;;;;;;;5032985;28;20160;-76
2022/08/27 14:44:22;;;;;;;11.55;2.35;;;;;;;;;;5031783;28;19971;-73
2022/08/27 14:46:48;;;;;;;;;;;;;;;;;;5033260;28;20045;-75
2022/08/27 14:49:15;;;;;;;13.30;2.50;;;;;;;;;;5032454;28;19928;-76
2022/08/27 14:51:44;;;;;;;12.95;2.90;;;;;;;;;;5014914;28;20045;-72
2022/08/27 14:54:10;;;;;;;10.15;2.30;;;;;;;;;;5032519;28;20046;-71
2022/08/27 14:56:36;;;;;;;;;;;;;;;;;;5033520;28;20052;-71
2022/08/27 14:59:02;;;;;;;15.55;3.22;;;;;;;;;;5033040;28;19925;-73
2022/08/27 15:01:28;;;;;;;;;;;;;;;;;;5033013;28;20049;-72
2022/08/27 15:03:55;;;;;;;14.30;2.92;;;;;;;;;;5033644;28;19928;-71
2022/08/27 15:06:22;;;;;;;13.73;3.53;;;;;;;;;;5015132;28;20049;-76